sensor_id;sensor_type;location;lat;lon;timestamp;P1;durP1;ratioP1;P2;durP2;ratioP2
32250;SDS011;41295;48.518;9.206;2023-04-03T00:00:59;5.45;;;3.40;;
32250;SDS011;41295;48.518;9.206;2023-04-03T00:03:01;5.63;;;3.90;;
32250;SDS011;41295;48.518;9.206;2023-04-03T00:05:04;5.75;;;3.75;;
32250;SDS011;41295;48.518;9.206;2023-04-03T00:07:07;5.85;;;4.07;;
32250;SDS011;41295;48.518;9.206;2023-04-03T00:09:10;4.47;;;3.72;;
32250;SDS011;41295;48.518;9.206;2023-04-03T00:11:13;6.95;;;3.90;;
32250;SDS011;41295;48.518;9.206;2023-04-03T00:13:16;5.40;;;3.88;;
32250;SDS011;41295;48.518;9.206;2023-04-03T00:15:19;6.68;;;4.05;;
32250;SDS011;41295;48.518;9.206;2023-04-03T00:17:23;9.70;;;3.75;;
32250;SDS011;41295;48.518;9.206;2023-04-03T00:19:25;5.25;;;3.60;;
32250;SDS011;41295;48.518;9.206;2023-04-03T00:21:28;5.03;;;3.70;;
32250;SDS011;41295;48.518;9.206;2023-04-03T00:23:31;4.75;;;3.42;;
32250;SDS011;41295;48.518;9.206;2023-04-03T00:25:35;6.25;;;3.72;;
32250;SDS011;41295;48.518;9.206;2023-04-03T00:27:38;8.23;;;3.40;;
32250;SDS011;41295;48.518;9.206;2023-04-03T00:29:41;4.68;;;3.17;;
32250;SDS011;41295;48.518;9.206;2023-04-03T00:31:44;7.40;;;3.78;;
32250;SDS011;41295;48.518;9.206;2023-04-03T00:33:48;5.03;;;3.38;;
32250;SDS011;41295;48.518;9.206;2023-04-03T00:35:50;6.57;;;3.65;;
32250;SDS011;41295;48.518;9.206;2023-04-03T00:37:54;5.57;;;4.10;;
32250;SDS011;41295;48.518;9.206;2023-04-03T00:39:57;6.20;;;3.72;;
32250;SDS011;41295;48.518;9.206;2023-04-03T00:42:02;4.85;;;3.47;;
32250;SDS011;41295;48.518;9.206;2023-04-03T00:44:18;9.98;;;3.75;;
32250;SDS011;41295;48.518;9.206;2023-04-03T00:46:22;6.32;;;3.45;;
32250;SDS011;41295;48.518;9.206;2023-04-03T00:48:26;4.85;;;3.63;;
32250;SDS011;41295;48.518;9.206;2023-04-03T00:50:33;4.28;;;3.65;;
32250;SDS011;41295;48.518;9.206;2023-04-03T00:52:38;7.50;;;3.78;;
32250;SDS011;41295;48.518;9.206;2023-04-03T00:54:43;6.05;;;3.65;;
32250;SDS011;41295;48.518;9.206;2023-04-03T00:56:48;7.63;;;3.50;;
32250;SDS011;41295;48.518;9.206;2023-04-03T00:58:54;5.63;;;3.92;;
32250;SDS011;41295;48.518;9.206;2023-04-03T01:01:02;5.07;;;3.20;;
32250;SDS011;41295;48.518;9.206;2023-04-03T01:03:08;5.40;;;3.85;;
32250;SDS011;41295;48.518;9.206;2023-04-03T01:05:11;5.85;;;3.72;;
32250;SDS011;41295;48.518;9.206;2023-04-03T01:07:19;7.57;;;3.78;;
32250;SDS011;41295;48.518;9.206;2023-04-03T01:09:25;6.38;;;3.20;;
32250;SDS011;41295;48.518;9.206;2023-04-03T01:11:28;7.70;;;3.97;;
32250;SDS011;41295;48.518;9.206;2023-04-03T01:13:31;6.22;;;3.70;;
32250;SDS011;41295;48.518;9.206;2023-04-03T01:15:35;6.03;;;3.55;;
32250;SDS011;41295;48.518;9.206;2023-04-03T01:17:38;4.65;;;3.53;;
32250;SDS011;41295;48.518;9.206;2023-04-03T01:19:42;5.30;;;3.92;;
32250;SDS011;41295;48.518;9.206;2023-04-03T01:22:05;5.75;;;3.33;;
32250;SDS011;41295;48.518;9.206;2023-04-03T01:24:24;4.75;;;3.33;;
32250;SDS011;41295;48.518;9.206;2023-04-03T01:26:34;7.22;;;3.72;;
32250;SDS011;41295;48.518;9.206;2023-04-03T01:28:37;9.25;;;3.92;;
32250;SDS011;41295;48.518;9.206;2023-04-03T01:30:41;5.13;;;3.50;;
32250;SDS011;41295;48.518;9.206;2023-04-03T01:32:51;5.38;;;4.05;;
32250;SDS011;41295;48.518;9.206;2023-04-03T01:34:53;9.18;;;4.07;;
32250;SDS011;41295;48.518;9.206;2023-04-03T01:36:56;7.75;;;3.55;;
32250;SDS011;41295;48.518;9.206;2023-04-03T01:38:59;5.72;;;3.78;;
32250;SDS011;41295;48.518;9.206;2023-04-03T01:41:02;5.35;;;4.03;;
32250;SDS011;41295;48.518;9.206;2023-04-03T01:43:04;5.90;;;3.75;;
32250;SDS011;41295;48.518;9.206;2023-04-03T01:45:07;5.70;;;3.80;;
32250;SDS011;41295;48.518;9.206;2023-04-03T01:47:11;6.70;;;4.13;;
32250;SDS011;41295;48.518;9.206;2023-04-03T01:49:15;4.97;;;3.80;;
32250;SDS011;41295;48.518;9.206;2023-04-03T01:51:17;4.50;;;3.85;;
32250;SDS011;41295;48.518;9.206;2023-04-03T01:53:20;4.88;;;3.50;;
32250;SDS011;41295;48.518;9.206;2023-04-03T01:55:22;8.13;;;4.13;;
32250;SDS011;41295;48.518;9.206;2023-04-03T01:57:25;5.60;;;3.88;;
32250;SDS011;41295;48.518;9.206;2023-04-03T01:59:28;6.32;;;4.13;;
32250;SDS011;41295;48.518;9.206;2023-04-03T02:01:30;6.82;;;3.72;;
32250;SDS011;41295;48.518;9.206;2023-04-03T02:03:33;6.15;;;3.85;;
32250;SDS011;41295;48.518;9.206;2023-04-03T02:05:38;8.00;;;4.10;;
32250;SDS011;41295;48.518;9.206;2023-04-03T02:07:40;4.85;;;3.63;;
32250;SDS011;41295;48.518;9.206;2023-04-03T02:09:43;4.72;;;3.50;;
32250;SDS011;41295;48.518;9.206;2023-04-03T02:11:45;6.60;;;4.47;;
32250;SDS011;41295;48.518;9.206;2023-04-03T02:13:48;6.50;;;4.20;;
32250;SDS011;41295;48.518;9.206;2023-04-03T02:15:51;4.68;;;3.75;;
32250;SDS011;41295;48.518;9.206;2023-04-03T02:17:53;6.22;;;4.22;;
32250;SDS011;41295;48.518;9.206;2023-04-03T02:19:56;5.63;;;3.53;;
32250;SDS011;41295;48.518;9.206;2023-04-03T02:22:00;9.02;;;4.00;;
32250;SDS011;41295;48.518;9.206;2023-04-03T02:24:03;7.32;;;3.78;;
32250;SDS011;41295;48.518;9.206;2023-04-03T02:26:07;8.25;;;4.00;;
32250;SDS011;41295;48.518;9.206;2023-04-03T02:28:11;5.90;;;3.58;;
32250;SDS011;41295;48.518;9.206;2023-04-03T02:30:14;4.85;;;3.90;;
32250;SDS011;41295;48.518;9.206;2023-04-03T02:32:16;5.53;;;4.00;;
32250;SDS011;41295;48.518;9.206;2023-04-03T02:34:19;6.15;;;4.00;;
32250;SDS011;41295;48.518;9.206;2023-04-03T02:36:22;6.30;;;4.50;;
32250;SDS011;41295;48.518;9.206;2023-04-03T02:38:26;4.40;;;3.35;;
32250;SDS011;41295;48.518;9.206;2023-04-03T02:40:28;6.65;;;4.05;;
32250;SDS011;41295;48.518;9.206;2023-04-03T02:42:31;6.63;;;3.70;;
32250;SDS011;41295;48.518;9.206;2023-04-03T02:44:34;7.28;;;4.38;;
32250;SDS011;41295;48.518;9.206;2023-04-03T02:46:37;5.38;;;3.47;;
32250;SDS011;41295;48.518;9.206;2023-04-03T02:48:39;7.07;;;4.28;;
32250;SDS011;41295;48.518;9.206;2023-04-03T02:50:42;7.35;;;4.20;;
32250;SDS011;41295;48.518;9.206;2023-04-03T02:52:45;7.35;;;4.55;;
32250;SDS011;41295;48.518;9.206;2023-04-03T02:54:49;5.30;;;4.22;;
32250;SDS011;41295;48.518;9.206;2023-04-03T02:56:51;6.18;;;4.70;;
32250;SDS011;41295;48.518;9.206;2023-04-03T02:58:54;6.43;;;4.28;;
32250;SDS011;41295;48.518;9.206;2023-04-03T03:00:56;4.72;;;3.72;;
32250;SDS011;41295;48.518;9.206;2023-04-03T03:02:59;5.70;;;4.20;;
32250;SDS011;41295;48.518;9.206;2023-04-03T03:05:02;4.63;;;3.42;;
32250;SDS011;41295;48.518;9.206;2023-04-03T03:07:05;7.28;;;4.13;;
32250;SDS011;41295;48.518;9.206;2023-04-03T03:09:07;5.65;;;3.92;;
32250;SDS011;41295;48.518;9.206;2023-04-03T03:11:11;6.32;;;4.03;;
32250;SDS011;41295;48.518;9.206;2023-04-03T03:13:14;5.57;;;3.85;;
32250;SDS011;41295;48.518;9.206;2023-04-03T03:15:17;5.95;;;4.15;;
32250;SDS011;41295;48.518;9.206;2023-04-03T03:17:20;7.93;;;4.20;;
32250;SDS011;41295;48.518;9.206;2023-04-03T03:19:23;7.53;;;3.70;;
32250;SDS011;41295;48.518;9.206;2023-04-03T03:21:25;5.03;;;3.92;;
32250;SDS011;41295;48.518;9.206;2023-04-03T03:23:28;6.80;;;4.05;;
32250;SDS011;41295;48.518;9.206;2023-04-03T03:25:33;7.60;;;3.80;;
32250;SDS011;41295;48.518;9.206;2023-04-03T03:27:37;5.93;;;4.03;;
32250;SDS011;41295;48.518;9.206;2023-04-03T03:29:40;6.65;;;4.00;;
32250;SDS011;41295;48.518;9.206;2023-04-03T03:31:42;7.57;;;4.22;;
32250;SDS011;41295;48.518;9.206;2023-04-03T03:33:45;5.78;;;4.05;;
32250;SDS011;41295;48.518;9.206;2023-04-03T03:35:48;6.68;;;4.15;;
32250;SDS011;41295;48.518;9.206;2023-04-03T03:37:51;7.03;;;4.50;;
32250;SDS011;41295;48.518;9.206;2023-04-03T03:39:53;7.32;;;4.32;;
32250;SDS011;41295;48.518;9.206;2023-04-03T03:41:59;6.05;;;4.07;;
32250;SDS011;41295;48.518;9.206;2023-04-03T03:44:03;5.97;;;3.97;;
32250;SDS011;41295;48.518;9.206;2023-04-03T03:46:05;5.50;;;4.28;;
32250;SDS011;41295;48.518;9.206;2023-04-03T03:48:08;6.97;;;4.03;;
32250;SDS011;41295;48.518;9.206;2023-04-03T03:50:10;6.63;;;4.25;;
32250;SDS011;41295;48.518;9.206;2023-04-03T03:52:13;5.72;;;4.25;;
32250;SDS011;41295;48.518;9.206;2023-04-03T03:54:16;5.45;;;4.05;;
32250;SDS011;41295;48.518;9.206;2023-04-03T03:56:19;8.25;;;3.90;;
32250;SDS011;41295;48.518;9.206;2023-04-03T03:58:21;8.02;;;4.53;;
32250;SDS011;41295;48.518;9.206;2023-04-03T04:00:25;7.53;;;4.50;;
32250;SDS011;41295;48.518;9.206;2023-04-03T04:02:28;7.63;;;4.55;;
32250;SDS011;41295;48.518;9.206;2023-04-03T04:04:31;6.95;;;4.38;;
32250;SDS011;41295;48.518;9.206;2023-04-03T04:06:33;7.25;;;4.22;;
32250;SDS011;41295;48.518;9.206;2023-04-03T04:08:36;6.95;;;4.25;;
32250;SDS011;41295;48.518;9.206;2023-04-03T04:10:38;6.28;;;4.30;;
32250;SDS011;41295;48.518;9.206;2023-04-03T04:12:41;6.70;;;3.85;;
32250;SDS011;41295;48.518;9.206;2023-04-03T04:14:44;6.45;;;3.97;;
32250;SDS011;41295;48.518;9.206;2023-04-03T04:16:49;6.80;;;4.00;;
32250;SDS011;41295;48.518;9.206;2023-04-03T04:18:51;6.53;;;4.32;;
32250;SDS011;41295;48.518;9.206;2023-04-03T04:20:54;5.72;;;3.70;;
32250;SDS011;41295;48.518;9.206;2023-04-03T04:22:57;6.18;;;4.05;;
32250;SDS011;41295;48.518;9.206;2023-04-03T04:24:59;6.93;;;3.97;;
32250;SDS011;41295;48.518;9.206;2023-04-03T04:27:05;5.53;;;4.22;;
32250;SDS011;41295;48.518;9.206;2023-04-03T04:29:08;5.65;;;4.32;;
32250;SDS011;41295;48.518;9.206;2023-04-03T04:31:11;10.43;;;4.13;;
32250;SDS011;41295;48.518;9.206;2023-04-03T04:33:15;6.45;;;4.47;;
32250;SDS011;41295;48.518;9.206;2023-04-03T04:35:17;6.22;;;3.85;;
32250;SDS011;41295;48.518;9.206;2023-04-03T04:37:20;8.85;;;4.40;;
32250;SDS011;41295;48.518;9.206;2023-04-03T04:39:22;5.40;;;3.88;;
32250;SDS011;41295;48.518;9.206;2023-04-03T04:41:25;6.82;;;3.80;;
32250;SDS011;41295;48.518;9.206;2023-04-03T04:43:28;7.63;;;4.10;;
32250;SDS011;41295;48.518;9.206;2023-04-03T04:45:30;6.93;;;3.60;;
32250;SDS011;41295;48.518;9.206;2023-04-03T04:47:33;5.38;;;4.05;;
32250;SDS011;41295;48.518;9.206;2023-04-03T04:49:37;4.57;;;3.35;;
32250;SDS011;41295;48.518;9.206;2023-04-03T04:51:39;5.53;;;3.90;;
32250;SDS011;41295;48.518;9.206;2023-04-03T04:53:52;5.30;;;3.72;;
32250;SDS011;41295;48.518;9.206;2023-04-03T04:55:56;6.22;;;3.65;;
32250;SDS011;41295;48.518;9.206;2023-04-03T04:57:59;4.95;;;3.47;;
32250;SDS011;41295;48.518;9.206;2023-04-03T05:00:01;6.50;;;3.75;;
32250;SDS011;41295;48.518;9.206;2023-04-03T05:02:05;5.90;;;3.78;;
32250;SDS011;41295;48.518;9.206;2023-04-03T05:04:07;5.90;;;3.47;;
32250;SDS011;41295;48.518;9.206;2023-04-03T05:06:11;7.20;;;3.88;;
32250;SDS011;41295;48.518;9.206;2023-04-03T05:08:14;4.95;;;3.30;;
32250;SDS011;41295;48.518;9.206;2023-04-03T05:10:17;6.43;;;3.78;;
32250;SDS011;41295;48.518;9.206;2023-04-03T05:12:19;6.05;;;3.70;;
32250;SDS011;41295;48.518;9.206;2023-04-03T05:14:22;5.65;;;3.92;;
32250;SDS011;41295;48.518;9.206;2023-04-03T05:16:25;6.70;;;4.00;;
32250;SDS011;41295;48.518;9.206;2023-04-03T05:18:27;5.93;;;3.45;;
32250;SDS011;41295;48.518;9.206;2023-04-03T05:20:30;5.25;;;3.63;;
32250;SDS011;41295;48.518;9.206;2023-04-03T05:22:34;7.95;;;3.80;;
32250;SDS011;41295;48.518;9.206;2023-04-03T05:24:37;6.72;;;3.50;;
32250;SDS011;41295;48.518;9.206;2023-04-03T05:26:40;7.38;;;3.83;;
32250;SDS011;41295;48.518;9.206;2023-04-03T05:28:42;5.82;;;4.18;;
32250;SDS011;41295;48.518;9.206;2023-04-03T05:30:45;7.22;;;3.90;;
32250;SDS011;41295;48.518;9.206;2023-04-03T05:32:54;6.28;;;3.80;;
32250;SDS011;41295;48.518;9.206;2023-04-03T05:34:57;7.03;;;3.75;;
32250;SDS011;41295;48.518;9.206;2023-04-03T05:37:01;5.60;;;3.15;;
32250;SDS011;41295;48.518;9.206;2023-04-03T05:39:07;5.85;;;3.38;;
32250;SDS011;41295;48.518;9.206;2023-04-03T05:41:10;5.13;;;3.58;;
32250;SDS011;41295;48.518;9.206;2023-04-03T05:43:13;4.63;;;3.35;;
32250;SDS011;41295;48.518;9.206;2023-04-03T05:45:16;6.68;;;3.50;;
32250;SDS011;41295;48.518;9.206;2023-04-03T05:47:18;4.63;;;3.50;;
32250;SDS011;41295;48.518;9.206;2023-04-03T05:49:21;5.80;;;3.85;;
32250;SDS011;41295;48.518;9.206;2023-04-03T05:51:24;5.60;;;3.20;;
32250;SDS011;41295;48.518;9.206;2023-04-03T05:53:31;5.63;;;3.20;;
32250;SDS011;41295;48.518;9.206;2023-04-03T05:55:39;6.47;;;3.20;;
32250;SDS011;41295;48.518;9.206;2023-04-03T05:57:41;6.05;;;2.90;;
32250;SDS011;41295;48.518;9.206;2023-04-03T05:59:44;5.13;;;3.35;;
32250;SDS011;41295;48.518;9.206;2023-04-03T06:01:48;4.45;;;2.90;;
32250;SDS011;41295;48.518;9.206;2023-04-03T06:03:51;4.85;;;3.25;;
32250;SDS011;41295;48.518;9.206;2023-04-03T06:05:54;6.95;;;3.45;;
32250;SDS011;41295;48.518;9.206;2023-04-03T06:07:56;5.57;;;3.20;;
32250;SDS011;41295;48.518;9.206;2023-04-03T06:09:59;5.20;;;3.47;;
32250;SDS011;41295;48.518;9.206;2023-04-03T06:12:03;6.47;;;3.28;;
32250;SDS011;41295;48.518;9.206;2023-04-03T06:14:06;6.10;;;3.28;;
32250;SDS011;41295;48.518;9.206;2023-04-03T06:16:09;4.35;;;3.20;;
32250;SDS011;41295;48.518;9.206;2023-04-03T06:18:16;8.90;;;3.63;;
32250;SDS011;41295;48.518;9.206;2023-04-03T06:20:19;6.97;;;3.38;;
32250;SDS011;41295;48.518;9.206;2023-04-03T06:22:21;4.70;;;2.90;;
32250;SDS011;41295;48.518;9.206;2023-04-03T06:24:27;6.07;;;3.25;;
32250;SDS011;41295;48.518;9.206;2023-04-03T06:26:29;6.22;;;3.03;;
32250;SDS011;41295;48.518;9.206;2023-04-03T06:28:34;9.10;;;3.30;;
32250;SDS011;41295;48.518;9.206;2023-04-03T06:30:36;7.03;;;3.40;;
32250;SDS011;41295;48.518;9.206;2023-04-03T06:32:39;5.65;;;2.90;;
32250;SDS011;41295;48.518;9.206;2023-04-03T06:34:42;5.50;;;3.05;;
32250;SDS011;41295;48.518;9.206;2023-04-03T06:36:45;6.65;;;2.97;;
32250;SDS011;41295;48.518;9.206;2023-04-03T06:38:48;4.90;;;2.95;;
32250;SDS011;41295;48.518;9.206;2023-04-03T06:40:51;5.18;;;2.70;;
32250;SDS011;41295;48.518;9.206;2023-04-03T06:42:54;6.57;;;3.05;;
32250;SDS011;41295;48.518;9.206;2023-04-03T06:44:58;4.18;;;3.00;;
32250;SDS011;41295;48.518;9.206;2023-04-03T06:47:01;8.52;;;2.70;;
32250;SDS011;41295;48.518;9.206;2023-04-03T06:49:04;4.15;;;2.83;;
32250;SDS011;41295;48.518;9.206;2023-04-03T06:51:11;4.60;;;2.78;;
32250;SDS011;41295;48.518;9.206;2023-04-03T06:53:19;7.50;;;3.10;;
32250;SDS011;41295;48.518;9.206;2023-04-03T06:55:22;5.10;;;2.53;;
32250;SDS011;41295;48.518;9.206;2023-04-03T06:57:25;4.28;;;2.75;;
32250;SDS011;41295;48.518;9.206;2023-04-03T06:59:28;5.18;;;3.00;;
32250;SDS011;41295;48.518;9.206;2023-04-03T07:01:31;5.60;;;3.10;;
32250;SDS011;41295;48.518;9.206;2023-04-03T07:03:34;6.78;;;3.10;;
32250;SDS011;41295;48.518;9.206;2023-04-03T07:05:37;3.85;;;2.75;;
32250;SDS011;41295;48.518;9.206;2023-04-03T07:07:41;4.38;;;2.60;;
32250;SDS011;41295;48.518;9.206;2023-04-03T07:09:43;5.03;;;2.97;;
32250;SDS011;41295;48.518;9.206;2023-04-03T07:11:47;7.70;;;3.60;;
32250;SDS011;41295;48.518;9.206;2023-04-03T07:13:50;3.25;;;2.75;;
32250;SDS011;41295;48.518;9.206;2023-04-03T07:15:53;4.15;;;2.92;;
32250;SDS011;41295;48.518;9.206;2023-04-03T07:17:57;4.55;;;2.85;;
32250;SDS011;41295;48.518;9.206;2023-04-03T07:19:59;4.75;;;3.03;;
32250;SDS011;41295;48.518;9.206;2023-04-03T07:22:02;7.82;;;3.10;;
32250;SDS011;41295;48.518;9.206;2023-04-03T07:24:05;6.70;;;2.80;;
32250;SDS011;41295;48.518;9.206;2023-04-03T07:26:11;6.53;;;3.05;;
32250;SDS011;41295;48.518;9.206;2023-04-03T07:28:14;4.97;;;2.88;;
32250;SDS011;41295;48.518;9.206;2023-04-03T07:30:17;3.25;;;2.67;;
32250;SDS011;41295;48.518;9.206;2023-04-03T07:32:20;7.57;;;2.90;;
32250;SDS011;41295;48.518;9.206;2023-04-03T07:34:24;6.15;;;2.97;;
32250;SDS011;41295;48.518;9.206;2023-04-03T07:36:29;5.28;;;2.92;;
32250;SDS011;41295;48.518;9.206;2023-04-03T07:38:35;3.97;;;2.80;;
32250;SDS011;41295;48.518;9.206;2023-04-03T07:40:38;7.38;;;3.00;;
32250;SDS011;41295;48.518;9.206;2023-04-03T07:42:41;3.50;;;2.80;;
32250;SDS011;41295;48.518;9.206;2023-04-03T07:44:43;3.95;;;2.75;;
32250;SDS011;41295;48.518;9.206;2023-04-03T07:46:46;4.20;;;2.97;;
32250;SDS011;41295;48.518;9.206;2023-04-03T07:48:49;7.07;;;3.13;;
32250;SDS011;41295;48.518;9.206;2023-04-03T07:50:53;4.65;;;2.92;;
32250;SDS011;41295;48.518;9.206;2023-04-03T07:52:58;7.20;;;3.17;;
32250;SDS011;41295;48.518;9.206;2023-04-03T07:55:00;4.97;;;2.95;;
32250;SDS011;41295;48.518;9.206;2023-04-03T07:57:03;7.82;;;3.08;;
32250;SDS011;41295;48.518;9.206;2023-04-03T07:59:06;4.70;;;3.10;;
32250;SDS011;41295;48.518;9.206;2023-04-03T08:01:08;6.75;;;3.17;;
32250;SDS011;41295;48.518;9.206;2023-04-03T08:03:11;5.15;;;2.95;;
32250;SDS011;41295;48.518;9.206;2023-04-03T08:05:15;5.80;;;3.42;;
32250;SDS011;41295;48.518;9.206;2023-04-03T08:07:19;4.35;;;3.08;;
32250;SDS011;41295;48.518;9.206;2023-04-03T08:09:22;4.97;;;2.90;;
32250;SDS011;41295;48.518;9.206;2023-04-03T08:11:25;5.20;;;3.13;;
32250;SDS011;41295;48.518;9.206;2023-04-03T08:13:29;6.35;;;3.00;;
32250;SDS011;41295;48.518;9.206;2023-04-03T08:15:32;6.45;;;2.97;;
32250;SDS011;41295;48.518;9.206;2023-04-03T08:17:35;5.75;;;3.30;;
32250;SDS011;41295;48.518;9.206;2023-04-03T08:19:38;5.50;;;2.85;;
32250;SDS011;41295;48.518;9.206;2023-04-03T08:21:41;7.75;;;3.70;;
32250;SDS011;41295;48.518;9.206;2023-04-03T08:23:47;7.65;;;3.13;;
32250;SDS011;41295;48.518;9.206;2023-04-03T08:25:50;8.35;;;3.30;;
32250;SDS011;41295;48.518;9.206;2023-04-03T08:27:53;6.00;;;2.70;;
32250;SDS011;41295;48.518;9.206;2023-04-03T08:29:55;5.25;;;2.95;;
32250;SDS011;41295;48.518;9.206;2023-04-03T08:31:58;7.32;;;3.30;;
32250;SDS011;41295;48.518;9.206;2023-04-03T08:34:00;5.72;;;3.58;;
32250;SDS011;41295;48.518;9.206;2023-04-03T08:36:03;5.93;;;3.35;;
32250;SDS011;41295;48.518;9.206;2023-04-03T08:38:07;8.65;;;3.17;;
32250;SDS011;41295;48.518;9.206;2023-04-03T08:40:13;4.45;;;2.80;;
32250;SDS011;41295;48.518;9.206;2023-04-03T08:42:19;3.25;;;2.63;;
32250;SDS011;41295;48.518;9.206;2023-04-03T08:44:38;7.03;;;2.90;;
32250;SDS011;41295;48.518;9.206;2023-04-03T08:46:56;4.53;;;3.03;;
32250;SDS011;41295;48.518;9.206;2023-04-03T08:49:06;5.25;;;2.80;;
32250;SDS011;41295;48.518;9.206;2023-04-03T08:51:17;4.20;;;2.65;;
32250;SDS011;41295;48.518;9.206;2023-04-03T08:53:23;5.50;;;2.97;;
32250;SDS011;41295;48.518;9.206;2023-04-03T08:55:31;3.50;;;2.92;;
32250;SDS011;41295;48.518;9.206;2023-04-03T08:57:38;9.43;;;2.92;;
32250;SDS011;41295;48.518;9.206;2023-04-03T08:59:43;6.03;;;2.97;;
32250;SDS011;41295;48.518;9.206;2023-04-03T09:01:45;6.35;;;2.90;;
32250;SDS011;41295;48.518;9.206;2023-04-03T09:03:49;4.13;;;2.80;;
32250;SDS011;41295;48.518;9.206;2023-04-03T09:05:53;5.30;;;3.08;;
32250;SDS011;41295;48.518;9.206;2023-04-03T09:08:01;4.40;;;3.10;;
32250;SDS011;41295;48.518;9.206;2023-04-03T09:10:09;5.57;;;3.28;;
32250;SDS011;41295;48.518;9.206;2023-04-03T09:12:17;6.80;;;3.30;;
32250;SDS011;41295;48.518;9.206;2023-04-03T09:14:26;10.20;;;3.38;;
32250;SDS011;41295;48.518;9.206;2023-04-03T09:16:38;4.35;;;2.90;;
32250;SDS011;41295;48.518;9.206;2023-04-03T09:18:51;6.72;;;3.50;;
32250;SDS011;41295;48.518;9.206;2023-04-03T09:21:01;6.97;;;3.22;;
32250;SDS011;41295;48.518;9.206;2023-04-03T09:23:14;8.80;;;3.17;;
32250;SDS011;41295;48.518;9.206;2023-04-03T09:25:22;6.10;;;3.03;;
32250;SDS011;41295;48.518;9.206;2023-04-03T09:27:29;7.95;;;3.00;;
32250;SDS011;41295;48.518;9.206;2023-04-03T09:29:32;7.32;;;3.05;;
32250;SDS011;41295;48.518;9.206;2023-04-03T09:31:42;4.95;;;3.05;;
32250;SDS011;41295;48.518;9.206;2023-04-03T09:33:46;4.00;;;2.65;;
32250;SDS011;41295;48.518;9.206;2023-04-03T09:35:51;4.95;;;2.70;;
32250;SDS011;41295;48.518;9.206;2023-04-03T09:37:54;4.32;;;2.47;;
32250;SDS011;41295;48.518;9.206;2023-04-03T09:40:00;4.95;;;2.85;;
32250;SDS011;41295;48.518;9.206;2023-04-03T09:42:04;5.35;;;2.70;;
32250;SDS011;41295;48.518;9.206;2023-04-03T09:44:22;5.30;;;2.47;;
32250;SDS011;41295;48.518;9.206;2023-04-03T09:46:28;5.45;;;3.10;;
32250;SDS011;41295;48.518;9.206;2023-04-03T09:48:33;5.38;;;3.20;;
32250;SDS011;41295;48.518;9.206;2023-04-03T09:50:36;5.85;;;3.15;;
32250;SDS011;41295;48.518;9.206;2023-04-03T09:52:40;5.20;;;2.90;;
32250;SDS011;41295;48.518;9.206;2023-04-03T09:54:43;5.38;;;3.08;;
32250;SDS011;41295;48.518;9.206;2023-04-03T09:56:49;8.05;;;3.58;;
32250;SDS011;41295;48.518;9.206;2023-04-03T09:59:06;8.13;;;3.28;;
32250;SDS011;41295;48.518;9.206;2023-04-03T10:01:28;9.75;;;3.53;;
32250;SDS011;41295;48.518;9.206;2023-04-03T10:03:34;8.55;;;3.30;;
32250;SDS011;41295;48.518;9.206;2023-04-03T10:05:38;6.38;;;3.28;;
32250;SDS011;41295;48.518;9.206;2023-04-03T10:07:41;8.07;;;2.83;;
32250;SDS011;41295;48.518;9.206;2023-04-03T10:09:55;5.03;;;3.03;;
32250;SDS011;41295;48.518;9.206;2023-04-03T10:12:00;6.65;;;3.22;;
32250;SDS011;41295;48.518;9.206;2023-04-03T10:14:15;4.55;;;2.90;;
32250;SDS011;41295;48.518;9.206;2023-04-03T10:16:20;8.43;;;3.28;;
32250;SDS011;41295;48.518;9.206;2023-04-03T10:18:31;7.75;;;3.13;;
32250;SDS011;41295;48.518;9.206;2023-04-03T10:20:42;4.68;;;2.83;;
32250;SDS011;41295;48.518;9.206;2023-04-03T10:22:53;7.22;;;3.03;;
32250;SDS011;41295;48.518;9.206;2023-04-03T10:27:07;4.70;;;2.70;;
32250;SDS011;41295;48.518;9.206;2023-04-03T10:29:19;6.03;;;3.30;;
32250;SDS011;41295;48.518;9.206;2023-04-03T10:31:29;7.18;;;3.00;;
32250;SDS011;41295;48.518;9.206;2023-04-03T10:33:42;6.18;;;3.40;;
32250;SDS011;41295;48.518;9.206;2023-04-03T10:35:59;4.57;;;2.80;;
32250;SDS011;41295;48.518;9.206;2023-04-03T10:38:13;5.40;;;3.10;;
32250;SDS011;41295;48.518;9.206;2023-04-03T10:40:25;4.40;;;3.00;;
32250;SDS011;41295;48.518;9.206;2023-04-03T10:42:35;6.22;;;3.03;;
32250;SDS011;41295;48.518;9.206;2023-04-03T10:46:56;6.40;;;2.80;;
32250;SDS011;41295;48.518;9.206;2023-04-03T10:49:09;4.88;;;2.38;;
32250;SDS011;41295;48.518;9.206;2023-04-03T10:51:23;4.65;;;2.80;;
32250;SDS011;41295;48.518;9.206;2023-04-03T10:53:31;3.53;;;2.70;;
32250;SDS011;41295;48.518;9.206;2023-04-03T10:55:42;4.00;;;2.75;;
32250;SDS011;41295;48.518;9.206;2023-04-03T10:57:53;6.78;;;3.08;;
32250;SDS011;41295;48.518;9.206;2023-04-03T10:59:59;4.90;;;2.90;;
32250;SDS011;41295;48.518;9.206;2023-04-03T11:02:06;4.28;;;2.55;;
32250;SDS011;41295;48.518;9.206;2023-04-03T11:04:17;5.63;;;2.72;;
32250;SDS011;41295;48.518;9.206;2023-04-03T11:06:23;4.70;;;2.17;;
32250;SDS011;41295;48.518;9.206;2023-04-03T11:08:29;3.95;;;2.28;;
32250;SDS011;41295;48.518;9.206;2023-04-03T11:10:40;3.67;;;2.55;;
32250;SDS011;41295;48.518;9.206;2023-04-03T11:12:46;3.53;;;2.30;;
32250;SDS011;41295;48.518;9.206;2023-04-03T11:14:53;3.90;;;2.30;;
32250;SDS011;41295;48.518;9.206;2023-04-03T11:17:05;5.50;;;2.53;;
32250;SDS011;41295;48.518;9.206;2023-04-03T11:19:20;4.43;;;2.60;;
32250;SDS011;41295;48.518;9.206;2023-04-03T11:21:27;5.03;;;2.40;;
32250;SDS011;41295;48.518;9.206;2023-04-03T11:23:32;5.15;;;2.53;;
32250;SDS011;41295;48.518;9.206;2023-04-03T11:25:51;3.28;;;2.15;;
32250;SDS011;41295;48.518;9.206;2023-04-03T11:27:57;3.58;;;2.88;;
32250;SDS011;41295;48.518;9.206;2023-04-03T11:30:00;5.38;;;2.40;;
32250;SDS011;41295;48.518;9.206;2023-04-03T11:32:09;7.22;;;2.35;;
32250;SDS011;41295;48.518;9.206;2023-04-03T11:34:26;3.53;;;2.10;;
32250;SDS011;41295;48.518;9.206;2023-04-03T11:36:40;9.82;;;2.72;;
32250;SDS011;41295;48.518;9.206;2023-04-03T11:38:47;2.75;;;1.90;;
32250;SDS011;41295;48.518;9.206;2023-04-03T11:40:55;5.10;;;2.10;;
32250;SDS011;41295;48.518;9.206;2023-04-03T11:43:02;4.05;;;2.40;;
32250;SDS011;41295;48.518;9.206;2023-04-03T11:45:23;3.22;;;2.00;;
32250;SDS011;41295;48.518;9.206;2023-04-03T11:47:45;3.07;;;2.07;;
32250;SDS011;41295;48.518;9.206;2023-04-03T11:49:58;6.43;;;2.45;;
32250;SDS011;41295;48.518;9.206;2023-04-03T11:52:02;6.05;;;2.30;;
32250;SDS011;41295;48.518;9.206;2023-04-03T11:56:46;6.63;;;2.50;;
32250;SDS011;41295;48.518;9.206;2023-04-03T12:08:52;3.70;;;2.05;;
32250;SDS011;41295;48.518;9.206;2023-04-03T12:11:13;4.63;;;2.28;;
32250;SDS011;41295;48.518;9.206;2023-04-03T12:13:18;5.63;;;2.20;;
32250;SDS011;41295;48.518;9.206;2023-04-03T12:15:26;4.57;;;2.33;;
32250;SDS011;41295;48.518;9.206;2023-04-03T12:17:46;5.72;;;2.30;;
32250;SDS011;41295;48.518;9.206;2023-04-03T12:19:49;3.38;;;2.00;;
32250;SDS011;41295;48.518;9.206;2023-04-03T12:24:27;4.20;;;2.30;;
32250;SDS011;41295;48.518;9.206;2023-04-03T12:26:33;4.82;;;2.35;;
32250;SDS011;41295;48.518;9.206;2023-04-03T12:28:49;3.40;;;2.20;;
32250;SDS011;41295;48.518;9.206;2023-04-03T12:30:54;5.60;;;2.50;;
32250;SDS011;41295;48.518;9.206;2023-04-03T12:33:09;4.78;;;2.33;;
32250;SDS011;41295;48.518;9.206;2023-04-03T12:35:24;6.00;;;2.10;;
32250;SDS011;41295;48.518;9.206;2023-04-03T12:37:44;7.15;;;2.28;;
32250;SDS011;41295;48.518;9.206;2023-04-03T12:40:02;5.65;;;2.20;;
32250;SDS011;41295;48.518;9.206;2023-04-03T12:42:17;4.15;;;1.80;;
32250;SDS011;41295;48.518;9.206;2023-04-03T12:44:37;4.25;;;2.30;;
32250;SDS011;41295;48.518;9.206;2023-04-03T12:46:47;4.03;;;2.42;;
32250;SDS011;41295;48.518;9.206;2023-04-03T12:48:52;3.35;;;2.20;;
32250;SDS011;41295;48.518;9.206;2023-04-03T12:50:57;4.22;;;2.28;;
32250;SDS011;41295;48.518;9.206;2023-04-03T12:53:01;5.78;;;2.55;;
32250;SDS011;41295;48.518;9.206;2023-04-03T12:55:15;6.05;;;2.53;;